sensor_id;sensor_type;location;lat;lon;timestamp;P1;durP1;ratioP1;P2;durP2;ratioP2
52734;SDS011;38631;47.572;10.704;2023-07-20T00:00:22;6.10;;;3.45;;
52734;SDS011;38631;47.572;10.704;2023-07-20T00:02:51;9.05;;;3.13;;
52734;SDS011;38631;47.572;10.704;2023-07-20T00:05:16;7.30;;;3.25;;
52734;SDS011;38631;47.572;10.704;2023-07-20T00:07:46;5.22;;;3.13;;
52734;SDS011;38631;47.572;10.704;2023-07-20T00:10:12;4.32;;;2.70;;
52734;SDS011;38631;47.572;10.704;2023-07-20T00:12:37;4.07;;;2.65;;
52734;SDS011;38631;47.572;10.704;2023-07-20T00:15:03;4.55;;;2.88;;
52734;SDS011;38631;47.572;10.704;2023-07-20T00:17:28;4.82;;;2.60;;
52734;SDS011;38631;47.572;10.704;2023-07-20T00:19:54;5.85;;;2.63;;
52734;SDS011;38631;47.572;10.704;2023-07-20T00:22:19;3.70;;;2.63;;
52734;SDS011;38631;47.572;10.704;2023-07-20T00:24:44;5.63;;;2.75;;
52734;SDS011;38631;47.572;10.704;2023-07-20T00:27:10;4.00;;;2.20;;
52734;SDS011;38631;47.572;10.704;2023-07-20T00:29:35;3.03;;;2.33;;
52734;SDS011;38631;47.572;10.704;2023-07-20T00:32:01;3.63;;;2.60;;
52734;SDS011;38631;47.572;10.704;2023-07-20T00:34:26;5.70;;;2.80;;
52734;SDS011;38631;47.572;10.704;2023-07-20T00:36:51;4.18;;;2.67;;
52734;SDS011;38631;47.572;10.704;2023-07-20T00:39:17;6.43;;;2.60;;
52734;SDS011;38631;47.572;10.704;2023-07-20T00:41:43;4.10;;;2.88;;
52734;SDS011;38631;47.572;10.704;2023-07-20T00:44:08;4.65;;;2.38;;
52734;SDS011;38631;47.572;10.704;2023-07-20T00:46:34;6.30;;;3.13;;
52734;SDS011;38631;47.572;10.704;2023-07-20T00:48:59;4.93;;;2.72;;
52734;SDS011;38631;47.572;10.704;2023-07-20T00:51:25;4.60;;;2.85;;
52734;SDS011;38631;47.572;10.704;2023-07-20T00:53:52;5.15;;;3.40;;
52734;SDS011;38631;47.572;10.704;2023-07-20T00:56:18;3.92;;;2.97;;
52734;SDS011;38631;47.572;10.704;2023-07-20T00:58:44;4.88;;;3.30;;
52734;SDS011;38631;47.572;10.704;2023-07-20T01:01:10;6.00;;;3.60;;
52734;SDS011;38631;47.572;10.704;2023-07-20T01:03:36;3.85;;;3.35;;
52734;SDS011;38631;47.572;10.704;2023-07-20T01:11:25;5.15;;;3.40;;
52734;SDS011;38631;47.572;10.704;2023-07-20T01:14:00;6.43;;;3.63;;
52734;SDS011;38631;47.572;10.704;2023-07-20T01:16:25;6.05;;;3.83;;
52734;SDS011;38631;47.572;10.704;2023-07-20T01:18:52;5.53;;;3.60;;
52734;SDS011;38631;47.572;10.704;2023-07-20T01:21:19;5.88;;;4.10;;
52734;SDS011;38631;47.572;10.704;2023-07-20T01:31:49;6.05;;;3.58;;
52734;SDS011;38631;47.572;10.704;2023-07-20T01:34:18;4.32;;;3.60;;
52734;SDS011;38631;47.572;10.704;2023-07-20T01:36:46;5.55;;;3.88;;
52734;SDS011;38631;47.572;10.704;2023-07-20T01:39:15;5.78;;;3.70;;
52734;SDS011;38631;47.572;10.704;2023-07-20T01:41:41;5.40;;;3.45;;
52734;SDS011;38631;47.572;10.704;2023-07-20T01:44:08;5.85;;;3.80;;
52734;SDS011;38631;47.572;10.704;2023-07-20T01:46:33;6.03;;;4.15;;
52734;SDS011;38631;47.572;10.704;2023-07-20T01:48:58;6.65;;;4.00;;
52734;SDS011;38631;47.572;10.704;2023-07-20T01:51:24;6.07;;;3.88;;
52734;SDS011;38631;47.572;10.704;2023-07-20T01:53:49;5.07;;;3.72;;
52734;SDS011;38631;47.572;10.704;2023-07-20T01:56:15;5.55;;;3.90;;
52734;SDS011;38631;47.572;10.704;2023-07-20T01:58:40;6.20;;;4.40;;
52734;SDS011;38631;47.572;10.704;2023-07-20T02:01:06;4.53;;;3.50;;
52734;SDS011;38631;47.572;10.704;2023-07-20T02:03:31;5.68;;;3.78;;
52734;SDS011;38631;47.572;10.704;2023-07-20T02:05:57;5.45;;;3.17;;
52734;SDS011;38631;47.572;10.704;2023-07-20T02:08:22;3.97;;;3.45;;
52734;SDS011;38631;47.572;10.704;2023-07-20T02:10:48;5.90;;;4.18;;
52734;SDS011;38631;47.572;10.704;2023-07-20T02:13:14;5.30;;;3.53;;
52734;SDS011;38631;47.572;10.704;2023-07-20T02:15:39;6.75;;;3.72;;
52734;SDS011;38631;47.572;10.704;2023-07-20T02:18:05;6.13;;;3.15;;
52734;SDS011;38631;47.572;10.704;2023-07-20T02:20:31;6.68;;;3.55;;
52734;SDS011;38631;47.572;10.704;2023-07-20T02:22:56;6.90;;;3.17;;
52734;SDS011;38631;47.572;10.704;2023-07-20T02:25:22;5.65;;;3.17;;
52734;SDS011;38631;47.572;10.704;2023-07-20T02:27:47;6.35;;;4.07;;
52734;SDS011;38631;47.572;10.704;2023-07-20T02:30:12;5.07;;;2.90;;
52734;SDS011;38631;47.572;10.704;2023-07-20T02:32:38;5.03;;;3.20;;
52734;SDS011;38631;47.572;10.704;2023-07-20T02:35:04;5.78;;;3.30;;
52734;SDS011;38631;47.572;10.704;2023-07-20T02:37:29;4.45;;;3.25;;
52734;SDS011;38631;47.572;10.704;2023-07-20T02:39:55;6.53;;;3.55;;
52734;SDS011;38631;47.572;10.704;2023-07-20T02:42:20;5.38;;;3.20;;
52734;SDS011;38631;47.572;10.704;2023-07-20T02:44:47;5.07;;;3.88;;
52734;SDS011;38631;47.572;10.704;2023-07-20T02:47:13;5.07;;;2.90;;
52734;SDS011;38631;47.572;10.704;2023-07-20T02:49:38;4.88;;;3.55;;
52734;SDS011;38631;47.572;10.704;2023-07-20T02:52:04;5.80;;;3.20;;
52734;SDS011;38631;47.572;10.704;2023-07-20T02:54:30;6.38;;;3.75;;
52734;SDS011;38631;47.572;10.704;2023-07-20T02:56:55;4.47;;;3.13;;
52734;SDS011;38631;47.572;10.704;2023-07-20T02:59:21;5.78;;;3.17;;
52734;SDS011;38631;47.572;10.704;2023-07-20T03:01:46;4.68;;;3.10;;
52734;SDS011;38631;47.572;10.704;2023-07-20T03:04:11;5.22;;;2.78;;
52734;SDS011;38631;47.572;10.704;2023-07-20T03:06:37;6.47;;;3.20;;
52734;SDS011;38631;47.572;10.704;2023-07-20T03:09:03;5.55;;;2.92;;
52734;SDS011;38631;47.572;10.704;2023-07-20T03:11:28;4.95;;;2.80;;
52734;SDS011;38631;47.572;10.704;2023-07-20T03:13:54;4.88;;;3.40;;
52734;SDS011;38631;47.572;10.704;2023-07-20T03:16:20;8.13;;;3.45;;
52734;SDS011;38631;47.572;10.704;2023-07-20T03:18:45;4.30;;;2.85;;
52734;SDS011;38631;47.572;10.704;2023-07-20T03:21:11;4.93;;;3.15;;
52734;SDS011;38631;47.572;10.704;2023-07-20T03:23:36;4.25;;;3.13;;
52734;SDS011;38631;47.572;10.704;2023-07-20T03:26:02;5.95;;;2.63;;
52734;SDS011;38631;47.572;10.704;2023-07-20T03:28:28;7.82;;;2.67;;
52734;SDS011;38631;47.572;10.704;2023-07-20T03:30:56;3.08;;;2.55;;
52734;SDS011;38631;47.572;10.704;2023-07-20T03:33:25;4.20;;;2.70;;
52734;SDS011;38631;47.572;10.704;2023-07-20T03:35:52;4.07;;;3.08;;
52734;SDS011;38631;47.572;10.704;2023-07-20T03:38:18;5.68;;;2.90;;
52734;SDS011;38631;47.572;10.704;2023-07-20T03:40:51;4.80;;;2.80;;
52734;SDS011;38631;47.572;10.704;2023-07-20T03:43:21;4.32;;;2.53;;
52734;SDS011;38631;47.572;10.704;2023-07-20T03:45:48;3.67;;;2.00;;
52734;SDS011;38631;47.572;10.704;2023-07-20T03:48:20;3.13;;;1.40;;
52734;SDS011;38631;47.572;10.704;2023-07-20T03:50:49;2.63;;;1.40;;
52734;SDS011;38631;47.572;10.704;2023-07-20T03:53:16;2.72;;;1.33;;
52734;SDS011;38631;47.572;10.704;2023-07-20T03:55:42;3.38;;;1.38;;
52734;SDS011;38631;47.572;10.704;2023-07-20T03:58:10;3.67;;;1.42;;
52734;SDS011;38631;47.572;10.704;2023-07-20T04:00:36;1.98;;;1.20;;
52734;SDS011;38631;47.572;10.704;2023-07-20T04:03:01;2.22;;;1.20;;
52734;SDS011;38631;47.572;10.704;2023-07-20T04:05:27;4.38;;;1.40;;
52734;SDS011;38631;47.572;10.704;2023-07-20T04:07:52;2.35;;;1.20;;
52734;SDS011;38631;47.572;10.704;2023-07-20T04:10:18;1.90;;;1.20;;
52734;SDS011;38631;47.572;10.704;2023-07-20T04:12:44;2.10;;;1.20;;
52734;SDS011;38631;47.572;10.704;2023-07-20T04:15:12;2.50;;;1.45;;
52734;SDS011;38631;47.572;10.704;2023-07-20T04:17:38;3.92;;;1.38;;
52734;SDS011;38631;47.572;10.704;2023-07-20T04:20:03;4.95;;;1.15;;
52734;SDS011;38631;47.572;10.704;2023-07-20T04:22:30;3.03;;;1.40;;
52734;SDS011;38631;47.572;10.704;2023-07-20T04:24:55;3.00;;;1.15;;
52734;SDS011;38631;47.572;10.704;2023-07-20T04:27:21;3.10;;;1.15;;
52734;SDS011;38631;47.572;10.704;2023-07-20T04:29:46;4.68;;;1.30;;
52734;SDS011;38631;47.572;10.704;2023-07-20T04:32:12;1.60;;;1.00;;
52734;SDS011;38631;47.572;10.704;2023-07-20T04:34:37;5.55;;;1.25;;
52734;SDS011;38631;47.572;10.704;2023-07-20T04:37:04;2.20;;;1.30;;
52734;SDS011;38631;47.572;10.704;2023-07-20T04:39:29;4.53;;;1.10;;
52734;SDS011;38631;47.572;10.704;2023-07-20T04:41:55;2.08;;;1.13;;
52734;SDS011;38631;47.572;10.704;2023-07-20T04:44:21;3.78;;;1.30;;
52734;SDS011;38631;47.572;10.704;2023-07-20T04:46:46;2.35;;;1.00;;
52734;SDS011;38631;47.572;10.704;2023-07-20T04:49:11;3.22;;;1.30;;
52734;SDS011;38631;47.572;10.704;2023-07-20T04:51:37;2.53;;;1.35;;
52734;SDS011;38631;47.572;10.704;2023-07-20T04:54:03;4.95;;;1.55;;
52734;SDS011;38631;47.572;10.704;2023-07-20T04:56:29;1.52;;;0.98;;
52734;SDS011;38631;47.572;10.704;2023-07-20T04:58:54;2.08;;;1.35;;
52734;SDS011;38631;47.572;10.704;2023-07-20T05:01:20;3.78;;;1.38;;
52734;SDS011;38631;47.572;10.704;2023-07-20T05:03:45;3.20;;;1.00;;
52734;SDS011;38631;47.572;10.704;2023-07-20T05:06:10;2.22;;;1.02;;
52734;SDS011;38631;47.572;10.704;2023-07-20T05:08:36;2.15;;;1.10;;
52734;SDS011;38631;47.572;10.704;2023-07-20T05:11:01;3.58;;;1.30;;
52734;SDS011;38631;47.572;10.704;2023-07-20T05:13:27;3.85;;;1.40;;
52734;SDS011;38631;47.572;10.704;2023-07-20T05:15:52;3.13;;;1.30;;
52734;SDS011;38631;47.572;10.704;2023-07-20T05:18:18;3.65;;;1.33;;
52734;SDS011;38631;47.572;10.704;2023-07-20T05:20:46;1.30;;;1.20;;
52734;SDS011;38631;47.572;10.704;2023-07-20T05:23:12;1.85;;;1.27;;
52734;SDS011;38631;47.572;10.704;2023-07-20T05:25:37;4.03;;;1.52;;
52734;SDS011;38631;47.572;10.704;2023-07-20T05:28:03;5.07;;;2.60;;
52734;SDS011;38631;47.572;10.704;2023-07-20T05:30:28;2.10;;;1.20;;
52734;SDS011;38631;47.572;10.704;2023-07-20T05:32:54;2.08;;;1.25;;
52734;SDS011;38631;47.572;10.704;2023-07-20T05:35:19;3.13;;;1.60;;
52734;SDS011;38631;47.572;10.704;2023-07-20T05:37:45;2.00;;;1.38;;
52734;SDS011;38631;47.572;10.704;2023-07-20T05:40:11;3.08;;;1.40;;
52734;SDS011;38631;47.572;10.704;2023-07-20T05:42:37;3.13;;;1.63;;
52734;SDS011;38631;47.572;10.704;2023-07-20T05:45:03;5.20;;;1.75;;
52734;SDS011;38631;47.572;10.704;2023-07-20T05:47:29;3.00;;;1.30;;
52734;SDS011;38631;47.572;10.704;2023-07-20T05:49:54;3.67;;;1.50;;
52734;SDS011;38631;47.572;10.704;2023-07-20T05:52:19;3.83;;;1.50;;
52734;SDS011;38631;47.572;10.704;2023-07-20T05:54:45;4.25;;;1.55;;
52734;SDS011;38631;47.572;10.704;2023-07-20T05:57:10;2.88;;;1.50;;
52734;SDS011;38631;47.572;10.704;2023-07-20T05:59:36;5.85;;;1.90;;
52734;SDS011;38631;47.572;10.704;2023-07-20T06:02:03;2.08;;;1.50;;
52734;SDS011;38631;47.572;10.704;2023-07-20T06:04:29;6.82;;;1.65;;
52734;SDS011;38631;47.572;10.704;2023-07-20T06:06:54;3.20;;;1.77;;
52734;SDS011;38631;47.572;10.704;2023-07-20T06:09:19;2.83;;;1.17;;
52734;SDS011;38631;47.572;10.704;2023-07-20T06:11:45;5.93;;;1.55;;
52734;SDS011;38631;47.572;10.704;2023-07-20T06:14:10;4.97;;;1.60;;
52734;SDS011;38631;47.572;10.704;2023-07-20T06:16:35;2.45;;;1.35;;
52734;SDS011;38631;47.572;10.704;2023-07-20T06:19:01;2.10;;;1.50;;
52734;SDS011;38631;47.572;10.704;2023-07-20T06:21:26;3.08;;;1.42;;
52734;SDS011;38631;47.572;10.704;2023-07-20T06:23:52;3.75;;;1.58;;
52734;SDS011;38631;47.572;10.704;2023-07-20T06:26:17;5.25;;;1.85;;
52734;SDS011;38631;47.572;10.704;2023-07-20T06:28:42;2.65;;;1.45;;
52734;SDS011;38631;47.572;10.704;2023-07-20T06:31:08;2.85;;;1.80;;
52734;SDS011;38631;47.572;10.704;2023-07-20T06:33:33;2.53;;;1.60;;
52734;SDS011;38631;47.572;10.704;2023-07-20T06:35:59;5.00;;;1.85;;
52734;SDS011;38631;47.572;10.704;2023-07-20T06:38:25;2.38;;;1.67;;
52734;SDS011;38631;47.572;10.704;2023-07-20T06:40:50;6.00;;;1.77;;
52734;SDS011;38631;47.572;10.704;2023-07-20T06:43:17;2.92;;;1.70;;
52734;SDS011;38631;47.572;10.704;2023-07-20T06:45:43;3.75;;;1.65;;
52734;SDS011;38631;47.572;10.704;2023-07-20T06:48:08;4.63;;;1.70;;
52734;SDS011;38631;47.572;10.704;2023-07-20T06:50:34;2.33;;;1.70;;
52734;SDS011;38631;47.572;10.704;2023-07-20T06:53:00;5.10;;;1.80;;
52734;SDS011;38631;47.572;10.704;2023-07-20T06:55:28;3.92;;;2.00;;
52734;SDS011;38631;47.572;10.704;2023-07-20T06:57:53;2.63;;;1.63;;
52734;SDS011;38631;47.572;10.704;2023-07-20T07:00:19;3.63;;;1.52;;
52734;SDS011;38631;47.572;10.704;2023-07-20T07:02:44;4.53;;;1.67;;
52734;SDS011;38631;47.572;10.704;2023-07-20T07:05:10;2.50;;;1.60;;
52734;SDS011;38631;47.572;10.704;2023-07-20T07:07:35;2.90;;;1.63;;
52734;SDS011;38631;47.572;10.704;2023-07-20T07:10:01;3.00;;;1.58;;
52734;SDS011;38631;47.572;10.704;2023-07-20T07:12:29;2.65;;;1.55;;
52734;SDS011;38631;47.572;10.704;2023-07-20T07:14:55;1.90;;;1.38;;
52734;SDS011;38631;47.572;10.704;2023-07-20T07:17:20;2.08;;;1.58;;
52734;SDS011;38631;47.572;10.704;2023-07-20T07:19:45;3.17;;;1.50;;
52734;SDS011;38631;47.572;10.704;2023-07-20T07:22:11;4.35;;;1.70;;
52734;SDS011;38631;47.572;10.704;2023-07-20T07:24:36;3.65;;;1.63;;
52734;SDS011;38631;47.572;10.704;2023-07-20T07:27:02;2.80;;;1.70;;
52734;SDS011;38631;47.572;10.704;2023-07-20T07:29:28;3.90;;;1.75;;
52734;SDS011;38631;47.572;10.704;2023-07-20T07:31:54;5.65;;;1.73;;
52734;SDS011;38631;47.572;10.704;2023-07-20T07:34:20;2.90;;;1.23;;
52734;SDS011;38631;47.572;10.704;2023-07-20T07:36:45;4.72;;;1.70;;
52734;SDS011;38631;47.572;10.704;2023-07-20T07:39:12;2.17;;;1.27;;
52734;SDS011;38631;47.572;10.704;2023-07-20T07:41:37;4.88;;;1.73;;
52734;SDS011;38631;47.572;10.704;2023-07-20T07:44:02;2.65;;;1.50;;
52734;SDS011;38631;47.572;10.704;2023-07-20T07:46:28;2.83;;;1.58;;
52734;SDS011;38631;47.572;10.704;2023-07-20T07:48:53;2.72;;;1.75;;
52734;SDS011;38631;47.572;10.704;2023-07-20T07:51:18;3.92;;;1.58;;
52734;SDS011;38631;47.572;10.704;2023-07-20T07:53:45;2.17;;;1.40;;
52734;SDS011;38631;47.572;10.704;2023-07-20T07:56:11;4.70;;;1.90;;
52734;SDS011;38631;47.572;10.704;2023-07-20T07:58:36;3.05;;;1.60;;
52734;SDS011;38631;47.572;10.704;2023-07-20T08:01:02;2.67;;;1.50;;
52734;SDS011;38631;47.572;10.704;2023-07-20T08:03:28;2.45;;;1.70;;
52734;SDS011;38631;47.572;10.704;2023-07-20T08:05:56;2.75;;;1.45;;
52734;SDS011;38631;47.572;10.704;2023-07-20T08:08:22;4.50;;;2.17;;
52734;SDS011;38631;47.572;10.704;2023-07-20T08:10:47;6.03;;;1.60;;
52734;SDS011;38631;47.572;10.704;2023-07-20T08:13:13;6.03;;;1.90;;
52734;SDS011;38631;47.572;10.704;2023-07-20T08:15:39;4.47;;;1.80;;
52734;SDS011;38631;47.572;10.704;2023-07-20T08:18:05;3.53;;;1.85;;
52734;SDS011;38631;47.572;10.704;2023-07-20T08:20:31;3.53;;;1.75;;
52734;SDS011;38631;47.572;10.704;2023-07-20T08:22:57;4.82;;;2.20;;
52734;SDS011;38631;47.572;10.704;2023-07-20T08:25:24;4.95;;;2.20;;
52734;SDS011;38631;47.572;10.704;2023-07-20T08:27:50;2.88;;;1.52;;
52734;SDS011;38631;47.572;10.704;2023-07-20T08:30:15;6.78;;;1.85;;
52734;SDS011;38631;47.572;10.704;2023-07-20T08:32:41;3.92;;;1.60;;
52734;SDS011;38631;47.572;10.704;2023-07-20T08:35:06;3.40;;;1.58;;
52734;SDS011;38631;47.572;10.704;2023-07-20T08:37:32;4.20;;;1.60;;
52734;SDS011;38631;47.572;10.704;2023-07-20T08:39:57;2.80;;;1.30;;
52734;SDS011;38631;47.572;10.704;2023-07-20T08:42:22;2.70;;;1.70;;
52734;SDS011;38631;47.572;10.704;2023-07-20T08:44:48;4.68;;;2.00;;
52734;SDS011;38631;47.572;10.704;2023-07-20T08:47:14;5.47;;;2.00;;
52734;SDS011;38631;47.572;10.704;2023-07-20T08:49:41;2.80;;;1.67;;
52734;SDS011;38631;47.572;10.704;2023-07-20T08:52:07;2.28;;;1.55;;
52734;SDS011;38631;47.572;10.704;2023-07-20T08:54:34;3.03;;;1.63;;
52734;SDS011;38631;47.572;10.704;2023-07-20T08:57:01;4.82;;;1.92;;
52734;SDS011;38631;47.572;10.704;2023-07-20T08:59:28;2.28;;;1.67;;
52734;SDS011;38631;47.572;10.704;2023-07-20T09:01:54;4.72;;;2.45;;
52734;SDS011;38631;47.572;10.704;2023-07-20T09:04:21;3.70;;;1.63;;
52734;SDS011;38631;47.572;10.704;2023-07-20T09:06:47;2.20;;;1.58;;
52734;SDS011;38631;47.572;10.704;2023-07-20T09:09:14;2.60;;;1.40;;
52734;SDS011;38631;47.572;10.704;2023-07-20T09:11:40;4.18;;;1.65;;
52734;SDS011;38631;47.572;10.704;2023-07-20T09:14:06;3.28;;;1.60;;
52734;SDS011;38631;47.572;10.704;2023-07-20T09:16:32;2.78;;;1.70;;
52734;SDS011;38631;47.572;10.704;2023-07-20T09:18:58;2.47;;;1.55;;
52734;SDS011;38631;47.572;10.704;2023-07-20T09:21:23;3.97;;;1.58;;
52734;SDS011;38631;47.572;10.704;2023-07-20T09:23:54;4.22;;;1.60;;
52734;SDS011;38631;47.572;10.704;2023-07-20T09:26:21;2.58;;;1.70;;
52734;SDS011;38631;47.572;10.704;2023-07-20T09:28:48;4.03;;;2.00;;
52734;SDS011;38631;47.572;10.704;2023-07-20T09:31:18;2.72;;;1.83;;
52734;SDS011;38631;47.572;10.704;2023-07-20T09:33:45;3.53;;;1.73;;
52734;SDS011;38631;47.572;10.704;2023-07-20T09:36:11;2.78;;;1.38;;
52734;SDS011;38631;47.572;10.704;2023-07-20T09:38:36;2.88;;;1.52;;
52734;SDS011;38631;47.572;10.704;2023-07-20T09:41:03;5.47;;;2.15;;
52734;SDS011;38631;47.572;10.704;2023-07-20T09:43:31;3.42;;;2.13;;
52734;SDS011;38631;47.572;10.704;2023-07-20T09:45:58;2.70;;;1.70;;
52734;SDS011;38631;47.572;10.704;2023-07-20T09:48:24;3.47;;;1.98;;
52734;SDS011;38631;47.572;10.704;2023-07-20T09:50:51;4.18;;;1.77;;
52734;SDS011;38631;47.572;10.704;2023-07-20T09:53:17;4.47;;;2.55;;
52734;SDS011;38631;47.572;10.704;2023-07-20T09:55:47;5.57;;;2.10;;
52734;SDS011;38631;47.572;10.704;2023-07-20T09:58:13;3.30;;;1.90;;
52734;SDS011;38631;47.572;10.704;2023-07-20T10:00:39;3.75;;;1.92;;
52734;SDS011;38631;47.572;10.704;2023-07-20T10:03:08;6.43;;;1.97;;
52734;SDS011;38631;47.572;10.704;2023-07-20T10:05:36;2.67;;;1.73;;
52734;SDS011;38631;47.572;10.704;2023-07-20T10:08:04;3.53;;;2.10;;
52734;SDS011;38631;47.572;10.704;2023-07-20T10:10:37;3.88;;;1.90;;
52734;SDS011;38631;47.572;10.704;2023-07-20T10:13:05;4.15;;;1.80;;
52734;SDS011;38631;47.572;10.704;2023-07-20T10:20:59;2.80;;;1.60;;
52734;SDS011;38631;47.572;10.704;2023-07-20T10:23:27;7.13;;;2.17;;
52734;SDS011;38631;47.572;10.704;2023-07-20T10:25:54;5.18;;;2.08;;
52734;SDS011;38631;47.572;10.704;2023-07-20T10:28:20;3.05;;;1.73;;
52734;SDS011;38631;47.572;10.704;2023-07-20T10:30:48;2.88;;;1.67;;
52734;SDS011;38631;47.572;10.704;2023-07-20T10:33:14;3.30;;;1.70;;
52734;SDS011;38631;47.572;10.704;2023-07-20T10:44:07;4.60;;;1.80;;
52734;SDS011;38631;47.572;10.704;2023-07-20T10:49:12;5.35;;;1.90;;
52734;SDS011;38631;47.572;10.704;2023-07-20T10:51:40;3.35;;;1.83;;
52734;SDS011;38631;47.572;10.704;2023-07-20T10:56:41;4.53;;;2.00;;
52734;SDS011;38631;47.572;10.704;2023-07-20T10:59:17;3.53;;;2.08;;
52734;SDS011;38631;47.572;10.704;2023-07-20T11:01:44;3.22;;;1.70;;
52734;SDS011;38631;47.572;10.704;2023-07-20T11:04:10;6.45;;;2.20;;
52734;SDS011;38631;47.572;10.704;2023-07-20T11:06:35;4.20;;;2.15;;
52734;SDS011;38631;47.572;10.704;2023-07-20T11:09:04;3.88;;;1.80;;
52734;SDS011;38631;47.572;10.704;2023-07-20T11:11:30;2.30;;;1.67;;
52734;SDS011;38631;47.572;10.704;2023-07-20T11:16:36;3.13;;;1.60;;
52734;SDS011;38631;47.572;10.704;2023-07-20T11:19:04;3.53;;;2.08;;
52734;SDS011;38631;47.572;10.704;2023-07-20T11:21:35;4.32;;;1.77;;
52734;SDS011;38631;47.572;10.704;2023-07-20T11:24:03;4.70;;;1.90;;
52734;SDS011;38631;47.572;10.704;2023-07-20T11:26:29;2.05;;;1.55;;
52734;SDS011;38631;47.572;10.704;2023-07-20T11:28:55;2.30;;;1.50;;
52734;SDS011;38631;47.572;10.704;2023-07-20T11:31:20;4.55;;;1.88;;
52734;SDS011;38631;47.572;10.704;2023-07-20T11:33:46;4.53;;;1.70;;
52734;SDS011;38631;47.572;10.704;2023-07-20T11:36:11;3.67;;;2.15;;
52734;SDS011;38631;47.572;10.704;2023-07-20T11:38:37;3.50;;;1.60;;
52734;SDS011;38631;47.572;10.704;2023-07-20T11:41:05;3.58;;;1.90;;
52734;SDS011;38631;47.572;10.704;2023-07-20T11:43:31;2.35;;;1.55;;
52734;SDS011;38631;47.572;10.704;2023-07-20T11:45:56;2.92;;;1.60;;
52734;SDS011;38631;47.572;10.704;2023-07-20T11:48:22;3.60;;;1.63;;
52734;SDS011;38631;47.572;10.704;2023-07-20T11:50:47;2.42;;;1.70;;
52734;SDS011;38631;47.572;10.704;2023-07-20T11:53:13;2.40;;;1.60;;
52734;SDS011;38631;47.572;10.704;2023-07-20T11:55:39;4.30;;;1.75;;
52734;SDS011;38631;47.572;10.704;2023-07-20T11:58:06;3.60;;;2.00;;
52734;SDS011;38631;47.572;10.704;2023-07-20T12:00:33;4.10;;;1.67;;
52734;SDS011;38631;47.572;10.704;2023-07-20T12:02:59;5.32;;;2.20;;
52734;SDS011;38631;47.572;10.704;2023-07-20T12:05:25;4.60;;;1.70;;
52734;SDS011;38631;47.572;10.704;2023-07-20T12:07:51;3.17;;;1.60;;
52734;SDS011;38631;47.572;10.704;2023-07-20T12:10:22;3.13;;;1.85;;
52734;SDS011;38631;47.572;10.704;2023-07-20T12:12:52;4.85;;;2.03;;
52734;SDS011;38631;47.572;10.704;2023-07-20T12:15:27;5.00;;;1.70;;
52734;SDS011;38631;47.572;10.704;2023-07-20T12:17:55;3.13;;;1.65;;
52734;SDS011;38631;47.572;10.704;2023-07-20T12:20:26;3.85;;;2.00;;
52734;SDS011;38631;47.572;10.704;2023-07-20T12:22:52;4.18;;;1.67;;
52734;SDS011;38631;47.572;10.704;2023-07-20T12:25:17;2.17;;;1.70;;
52734;SDS011;38631;47.572;10.704;2023-07-20T12:27:45;3.10;;;2.03;;
52734;SDS011;38631;47.572;10.704;2023-07-20T12:30:12;2.10;;;1.63;;
52734;SDS011;38631;47.572;10.704;2023-07-20T12:32:38;2.67;;;1.80;;
52734;SDS011;38631;47.572;10.704;2023-07-20T12:35:04;2.90;;;2.03;;
52734;SDS011;38631;47.572;10.704;2023-07-20T12:37:29;3.67;;;2.03;;
52734;SDS011;38631;47.572;10.704;2023-07-20T12:39:55;3.50;;;1.67;;
52734;SDS011;38631;47.572;10.704;2023-07-20T12:42:20;3.20;;;1.88;;
52734;SDS011;38631;47.572;10.704;2023-07-20T12:44:45;3.60;;;1.98;;
52734;SDS011;38631;47.572;10.704;2023-07-20T12:47:12;2.88;;;1.92;;
52734;SDS011;38631;47.572;10.704;2023-07-20T12:49:37;3.80;;;1.90;;
52734;SDS011;38631;47.572;10.704;2023-07-20T12:52:04;2.42;;;1.70;;
52734;SDS011;38631;47.572;10.704;2023-07-20T12:54:30;1.60;;;1.38;;
52734;SDS011;38631;47.572;10.704;2023-07-20T12:56:55;3.83;;;2.25;;
52734;SDS011;38631;47.572;10.704;2023-07-20T12:59:20;4.20;;;2.13;;
52734;SDS011;38631;47.572;10.704;2023-07-20T13:01:46;3.15;;;1.83;;
52734;SDS011;38631;47.572;10.704;2023-07-20T13:04:11;3.30;;;2.15;;
52734;SDS011;38631;47.572;10.704;2023-07-20T13:06:37;3.63;;;1.80;;
52734;SDS011;38631;47.572;10.704;2023-07-20T13:09:02;2.33;;;1.83;;
52734;SDS011;38631;47.572;10.704;2023-07-20T13:11:28;3.78;;;2.15;;
52734;SDS011;38631;47.572;10.704;2023-07-20T13:13:53;3.95;;;1.67;;
52734;SDS011;38631;47.572;10.704;2023-07-20T13:16:19;2.92;;;1.80;;
52734;SDS011;38631;47.572;10.704;2023-07-20T13:18:44;2.30;;;1.95;;
52734;SDS011;38631;47.572;10.704;2023-07-20T13:21:09;3.22;;;2.08;;
52734;SDS011;38631;47.572;10.704;2023-07-20T13:23:36;3.38;;;2.13;;
52734;SDS011;38631;47.572;10.704;2023-07-20T13:26:02;2.88;;;2.10;;
52734;SDS011;38631;47.572;10.704;2023-07-20T13:28:28;5.97;;;1.88;;
52734;SDS011;38631;47.572;10.704;2023-07-20T13:30:53;3.97;;;2.00;;
52734;SDS011;38631;47.572;10.704;2023-07-20T13:33:19;3.90;;;2.13;;
52734;SDS011;38631;47.572;10.704;2023-07-20T13:35:44;3.30;;;1.73;;
52734;SDS011;38631;47.572;10.704;2023-07-20T13:38:09;3.63;;;2.08;;
52734;SDS011;38631;47.572;10.704;2023-07-20T13:40:35;3.17;;;1.77;;
52734;SDS011;38631;47.572;10.704;2023-07-20T13:43:01;2.85;;;1.70;;
52734;SDS011;38631;47.572;10.704;2023-07-20T13:45:27;3.25;;;1.92;;
52734;SDS011;38631;47.572;10.704;2023-07-20T13:47:52;4.80;;;2.10;;
52734;SDS011;38631;47.572;10.704;2023-07-20T13:50:18;2.63;;;1.80;;
52734;SDS011;38631;47.572;10.704;2023-07-20T13:52:43;4.50;;;2.38;;
52734;SDS011;38631;47.572;10.704;2023-07-20T13:55:08;3.13;;;2.03;;
52734;SDS011;38631;47.572;10.704;2023-07-20T13:57:34;5.05;;;1.98;;
52734;SDS011;38631;47.572;10.704;2023-07-20T13:59:59;3.75;;;2.03;;
52734;SDS011;38631;47.572;10.704;2023-07-20T14:02:26;2.58;;;1.60;;
52734;SDS011;38631;47.572;10.704;2023-07-20T14:04:51;4.63;;;1.92;;
52734;SDS011;38631;47.572;10.704;2023-07-20T14:07:19;4.40;;;1.90;;
52734;SDS011;38631;47.572;10.704;2023-07-20T14:09:45;2.70;;;1.70;;
52734;SDS011;38631;47.572;10.704;2023-07-20T14:12:10;3.92;;;1.95;;
52734;SDS011;38631;47.572;10.704;2023-07-20T14:14:38;2.53;;;1.88;;
52734;SDS011;38631;47.572;10.704;2023-07-20T14:17:05;2.63;;;1.80;;
52734;SDS011;38631;47.572;10.704;2023-07-20T14:19:31;2.60;;;1.88;;
52734;SDS011;38631;47.572;10.704;2023-07-20T14:21:56;2.20;;;1.80;;
52734;SDS011;38631;47.572;10.704;2023-07-20T14:24:24;5.38;;;2.28;;
52734;SDS011;38631;47.572;10.704;2023-07-20T14:26:50;3.80;;;2.10;;
52734;SDS011;38631;47.572;10.704;2023-07-20T14:29:15;4.95;;;2.30;;
52734;SDS011;38631;47.572;10.704;2023-07-20T14:31:42;2.78;;;1.80;;
52734;SDS011;38631;47.572;10.704;2023-07-20T14:34:08;2.50;;;1.77;;
52734;SDS011;38631;47.572;10.704;2023-07-20T14:36:34;3.70;;;2.25;;
52734;SDS011;38631;47.572;10.704;2023-07-20T14:38:59;5.30;;;2.55;;
52734;SDS011;38631;47.572;10.704;2023-07-20T14:41:25;9.63;;;2.05;;
52734;SDS011;38631;47.572;10.704;2023-07-20T14:43:51;2.85;;;2.20;;
52734;SDS011;38631;47.572;10.704;2023-07-20T14:46:16;2.15;;;1.70;;
52734;SDS011;38631;47.572;10.704;2023-07-20T14:48:42;2.58;;;2.30;;
52734;SDS011;38631;47.572;10.704;2023-07-20T14:51:07;4.15;;;1.90;;
52734;SDS011;38631;47.572;10.704;2023-07-20T14:53:32;3.85;;;2.05;;
52734;SDS011;38631;47.572;10.704;2023-07-20T14:55:59;3.80;;;1.92;;
52734;SDS011;38631;47.572;10.704;2023-07-20T14:58:27;5.00;;;2.70;;
52734;SDS011;38631;47.572;10.704;2023-07-20T15:00:53;2.85;;;1.73;;